createdAt,value
2023-04-09T00:00:02.195Z,6.9
2023-04-09T00:01:02.177Z,7
2023-04-09T00:02:01.856Z,7
2023-04-09T00:03:01.873Z,7
2023-04-09T00:04:01.769Z,7
2023-04-09T00:05:01.753Z,7.1
2023-04-09T00:06:01.761Z,7
2023-04-09T00:07:01.578Z,6.9
2023-04-09T00:08:01.624Z,7
2023-04-09T00:09:01.457Z,7
2023-04-09T00:10:01.503Z,7
2023-04-09T00:11:01.352Z,7
2023-04-09T00:12:01.308Z,7.1
2023-04-09T00:13:02.367Z,7
2023-04-09T00:14:02.208Z,7
2023-04-09T00:15:02.236Z,7
2023-04-09T00:16:02.170Z,7.1
2023-04-09T00:17:02.258Z,7.1
2023-04-09T00:18:02.407Z,7
2023-04-09T00:19:02.247Z,7.1
2023-04-09T00:20:02.323Z,7
2023-04-09T00:21:02.172Z,7
2023-04-09T00:22:02.190Z,7
2023-04-09T00:23:02.050Z,7.1
2023-04-09T00:24:02.112Z,7
2023-04-09T00:25:01.925Z,7.1
2023-04-09T00:26:01.881Z,7.2
2023-04-09T00:27:01.938Z,7.1
2023-04-09T00:28:01.863Z,7.2
2023-04-09T00:29:01.721Z,7.2
2023-04-09T00:30:01.747Z,7.3
2023-04-09T00:31:01.566Z,7.2
2023-04-09T00:32:01.465Z,7.2
2023-04-09T00:33:01.477Z,7.3
2023-04-09T00:34:01.360Z,7.3
2023-04-09T00:35:02.356Z,7.4
2023-04-09T00:36:02.245Z,7.3
2023-04-09T00:37:02.191Z,7.3
2023-04-09T00:38:02.089Z,7.2
2023-04-09T00:39:02.183Z,7.2
2023-04-09T00:40:02.140Z,7.2
2023-04-09T00:41:02.190Z,7.2
2023-04-09T00:42:02.084Z,7.2
2023-04-09T00:43:02.123Z,7.2
2023-04-09T00:44:02.002Z,7.3
2023-04-09T00:45:02.057Z,7.3
2023-04-09T00:46:01.896Z,7.3
2023-04-09T00:47:01.848Z,7.4
2023-04-09T00:48:02.038Z,7.3
2023-04-09T00:49:01.882Z,7.3
2023-04-09T00:50:01.767Z,7.3
2023-04-09T00:51:01.886Z,7.3
2023-04-09T00:52:01.807Z,7.3
2023-04-09T00:53:01.779Z,7.3
2023-04-09T00:54:01.853Z,7.4
2023-04-09T00:55:01.645Z,7.4
2023-04-09T00:56:01.655Z,7.3
2023-04-09T00:57:01.496Z,7.2
2023-04-09T00:58:01.509Z,7.3
2023-04-09T00:59:01.393Z,7.3
2023-04-09T01:00:02.298Z,7.3
2023-04-09T01:01:02.293Z,7.3
2023-04-09T01:02:02.201Z,7.3
2023-04-09T01:03:02.368Z,7.3
2023-04-09T01:04:02.202Z,7.3
2023-04-09T01:05:02.226Z,7.3
2023-04-09T01:06:02.136Z,7.3
2023-04-09T01:07:02.186Z,7.3
2023-04-09T01:08:02.123Z,7.1
2023-04-09T01:09:02.168Z,7.2
2023-04-09T01:10:02.002Z,7.2
2023-04-09T01:11:02.007Z,7.2
2023-04-09T01:12:02.022Z,7.3
2023-04-09T01:13:01.976Z,7.3
2023-04-09T01:14:02.030Z,7.1
2023-04-09T01:15:01.916Z,7.2
2023-04-09T01:16:01.909Z,7.3
2023-04-09T01:17:01.692Z,7.1
2023-04-09T01:18:01.744Z,7.1
2023-04-09T01:19:01.569Z,7
2023-04-09T01:20:01.607Z,7.2
2023-04-09T01:21:01.417Z,7.1
2023-04-09T01:22:01.363Z,7
2023-04-09T01:23:01.431Z,6.9
2023-04-09T01:24:01.358Z,7
2023-04-09T01:25:01.311Z,7
2023-04-09T01:26:02.375Z,7
2023-04-09T01:27:02.192Z,7
2023-04-09T01:28:02.205Z,7
2023-04-09T01:29:02.061Z,6.9
2023-04-09T01:30:02.099Z,6.9
2023-04-09T01:31:01.972Z,6.9
2023-04-09T01:32:01.763Z,6.9
2023-04-09T01:33:01.852Z,6.9
2023-04-09T01:34:01.680Z,7
2023-04-09T01:35:01.694Z,6.9
2023-04-09T01:36:01.605Z,6.9
2023-04-09T01:37:01.518Z,6.9
2023-04-09T01:38:01.394Z,6.9
2023-04-09T01:39:01.418Z,6.9
2023-04-09T01:40:01.300Z,6.8
2023-04-09T01:41:02.368Z,6.7
2023-04-09T01:42:02.256Z,6.9
2023-04-09T01:43:02.289Z,6.9
2023-04-09T01:44:02.127Z,6.8
2023-04-09T01:45:02.180Z,6.8
2023-04-09T01:46:02.117Z,6.7
2023-04-09T01:47:02.206Z,6.7
2023-04-09T01:48:02.311Z,6.7
2023-04-09T01:49:02.205Z,6.7
2023-04-09T01:50:02.457Z,6.7
2023-04-09T01:51:02.289Z,6.7
2023-04-09T01:52:02.316Z,6.7
2023-04-09T01:53:02.187Z,6.8
2023-04-09T01:54:02.265Z,6.7
2023-04-09T01:55:02.103Z,6.7
2023-04-09T01:56:02.143Z,6.7
2023-04-09T01:57:01.942Z,6.7
2023-04-09T01:58:01.911Z,6.7
2023-04-09T01:59:01.934Z,6.6
2023-04-09T02:00:01.800Z,6.7
2023-04-09T02:01:01.787Z,6.7
2023-04-09T02:02:01.995Z,6.7
2023-04-09T02:03:02.209Z,6.7
2023-04-09T02:04:01.390Z,6.7
2023-04-09T02:05:01.524Z,6.8
2023-04-09T02:06:01.345Z,6.7
2023-04-09T02:07:01.436Z,6.6
2023-04-09T02:08:02.309Z,6.7
2023-04-09T02:09:02.259Z,6.7
2023-04-09T02:10:02.234Z,6.7
2023-04-09T02:11:02.123Z,6.6
2023-04-09T02:12:02.220Z,6.6
2023-04-09T02:13:02.072Z,6.5
2023-04-09T02:14:02.098Z,6.6
2023-04-09T02:15:02.039Z,6.6
2023-04-09T02:16:02.141Z,6.6
2023-04-09T02:17:02.097Z,6.6
2023-04-09T02:18:02.131Z,6.6
2023-04-09T02:19:01.955Z,6.6
2023-04-09T02:20:01.909Z,6.6
2023-04-09T02:21:01.964Z,6.6
2023-04-09T02:22:01.769Z,6.6
2023-04-09T02:23:01.854Z,6.6
2023-04-09T02:24:01.955Z,6.5
2023-04-09T02:25:01.745Z,6.5
2023-04-09T02:26:01.739Z,6.6
2023-04-09T02:27:01.749Z,6.5
2023-04-09T02:28:01.596Z,6.5
2023-04-09T02:29:01.651Z,6.5
2023-04-09T02:30:01.508Z,6.4
2023-04-09T02:31:01.550Z,6.5
2023-04-09T02:32:01.312Z,6.5
2023-04-09T02:33:02.364Z,6.5
2023-04-09T02:34:02.270Z,6.6
2023-04-09T02:35:02.292Z,6.5
2023-04-09T02:36:02.214Z,6.5
2023-04-09T02:37:02.226Z,6.6
2023-04-09T02:38:02.069Z,6.6
2023-04-09T02:39:02.162Z,6.5
2023-04-09T02:40:02.054Z,6.5
2023-04-09T02:41:02.097Z,6.5
2023-04-09T02:42:01.972Z,6.4
2023-04-09T02:43:01.924Z,6.4
2023-04-09T02:44:01.957Z,6.4
2023-04-09T02:45:01.821Z,6.4
2023-04-09T02:46:01.838Z,6.4
2023-04-09T02:47:01.948Z,6.4
2023-04-09T02:48:02.015Z,6.4
2023-04-09T02:49:01.865Z,6.3
2023-04-09T02:50:01.799Z,6.4
2023-04-09T02:51:01.847Z,6.4
2023-04-09T02:52:01.603Z,6.3
2023-04-09T02:53:01.614Z,6.4
2023-04-09T02:54:01.570Z,6.5
2023-04-09T02:55:01.563Z,6.4
2023-04-09T02:56:01.408Z,6.4
2023-04-09T02:57:01.420Z,6.5
2023-04-09T02:58:02.361Z,6.5
2023-04-09T02:59:02.249Z,6.5
2023-04-09T03:00:02.452Z,6.5
2023-04-09T03:01:01.310Z,6.5
2023-04-09T03:02:02.252Z,6.5
2023-04-09T03:03:02.337Z,6.6
2023-04-09T03:04:01.552Z,6.7
2023-04-09T03:05:01.928Z,6.7
2023-04-09T03:06:01.686Z,6.7
2023-04-09T03:07:01.751Z,6.7
2023-04-09T03:08:01.612Z,6.6
2023-04-09T03:09:01.656Z,6.6
2023-04-09T03:10:01.453Z,6.6
2023-04-09T03:11:01.493Z,6.7
2023-04-09T03:12:01.334Z,6.7
2023-04-09T03:13:01.406Z,6.6
2023-04-09T03:14:02.371Z,6.5
2023-04-09T03:15:02.218Z,6.5
2023-04-09T03:16:02.328Z,6.6
2023-04-09T03:17:02.071Z,6.6
2023-04-09T03:18:02.150Z,6.5
2023-04-09T03:19:02.039Z,6.4
2023-04-09T03:20:02.078Z,6.6
2023-04-09T03:21:01.958Z,6.5
2023-04-09T03:22:01.947Z,6.6
2023-04-09T03:23:01.988Z,6.5
2023-04-09T03:24:01.816Z,6.5
2023-04-09T03:25:01.795Z,6.5
2023-04-09T03:26:01.765Z,6.4
2023-04-09T03:27:01.671Z,6.5
2023-04-09T03:28:01.708Z,6.4
2023-04-09T03:29:01.528Z,6.4
2023-04-09T03:30:01.574Z,6.5
2023-04-09T03:31:01.455Z,6.5
2023-04-09T03:32:02.042Z,6.5
2023-04-09T03:33:02.146Z,6.5
2023-04-09T03:34:01.973Z,6.5
2023-04-09T03:35:01.917Z,6.5
2023-04-09T03:36:02.017Z,6.7
2023-04-09T03:37:01.829Z,6.7
2023-04-09T03:38:01.774Z,6.8
2023-04-09T03:39:01.921Z,6.8
2023-04-09T03:40:01.729Z,6.8
2023-04-09T03:41:01.736Z,6.7
2023-04-09T03:42:01.587Z,6.7
2023-04-09T03:43:01.588Z,6.7
2023-04-09T03:44:01.518Z,6.7
2023-04-09T03:45:01.529Z,6.6
2023-04-09T03:46:01.350Z,6.7
2023-04-09T03:47:01.329Z,6.7
2023-04-09T03:48:02.453Z,6.7
2023-04-09T03:49:02.218Z,6.6
2023-04-09T03:50:02.286Z,6.6
2023-04-09T03:51:02.119Z,6.6
2023-04-09T03:52:02.173Z,6.6
2023-04-09T03:53:01.993Z,6.6
2023-04-09T03:54:02.061Z,6.6
2023-04-09T03:55:01.946Z,6.6
2023-04-09T03:56:01.893Z,6.7
2023-04-09T03:57:01.886Z,6.7
2023-04-09T03:58:01.748Z,6.6
2023-04-09T03:59:01.698Z,6.7
2023-04-09T04:00:02.116Z,6.6
2023-04-09T04:01:01.959Z,6.6
2023-04-09T04:02:01.308Z,6.7
2023-04-09T04:03:01.647Z,6.7
2023-04-09T04:04:02.304Z,6.6
2023-04-09T04:05:02.247Z,6.6
2023-04-09T04:06:02.314Z,6.6
2023-04-09T04:07:02.250Z,6.6
2023-04-09T04:08:02.229Z,6.6
2023-04-09T04:09:02.044Z,6.6
2023-04-09T04:10:02.051Z,6.6
2023-04-09T04:11:02.036Z,6.7
2023-04-09T04:12:01.923Z,6.8
2023-04-09T04:13:02.008Z,6.7
2023-04-09T04:14:01.973Z,6.8
2023-04-09T04:15:01.938Z,6.8
2023-04-09T04:16:01.981Z,6.7
2023-04-09T04:17:01.698Z,6.6
2023-04-09T04:18:01.650Z,6.7
2023-04-09T04:19:01.589Z,6.8
2023-04-09T04:20:01.432Z,6.9
2023-04-09T04:21:01.340Z,6.9
2023-04-09T04:22:01.412Z,6.9
2023-04-09T04:23:02.344Z,6.9
2023-04-09T04:24:02.321Z,6.8
2023-04-09T04:25:02.249Z,6.8
2023-04-09T04:26:02.164Z,6.8
2023-04-09T04:27:02.215Z,6.9
2023-04-09T04:28:02.070Z,6.8
2023-04-09T04:29:02.112Z,6.9
2023-04-09T04:30:02.039Z,6.9
2023-04-09T04:31:01.922Z,6.8
2023-04-09T04:32:01.836Z,6.9
2023-04-09T04:33:01.873Z,6.9
2023-04-09T04:34:01.713Z,6.9
2023-04-09T04:35:01.746Z,6.9
2023-04-09T04:36:01.632Z,6.9
2023-04-09T04:37:01.629Z,6.9
2023-04-09T04:38:01.461Z,6.9
2023-04-09T04:39:01.486Z,6.9
2023-04-09T04:40:01.316Z,6.9
2023-04-09T04:41:02.365Z,6.9
2023-04-09T04:42:02.247Z,7
2023-04-09T04:43:02.279Z,7
2023-04-09T04:44:02.142Z,7.1
2023-04-09T04:45:02.149Z,7
2023-04-09T04:46:01.760Z,6.9
2023-04-09T04:47:02.056Z,6.8
2023-04-09T04:48:02.112Z,7
2023-04-09T04:49:01.919Z,7
2023-04-09T04:50:01.887Z,6.9
2023-04-09T04:51:01.885Z,6.9
2023-04-09T04:52:01.870Z,6.9
2023-04-09T04:53:01.656Z,6.9
2023-04-09T04:54:01.711Z,6.8
2023-04-09T04:55:01.514Z,6.8
2023-04-09T04:56:01.509Z,6.8
2023-04-09T04:57:01.322Z,6.8
2023-04-09T04:58:02.380Z,6.8
2023-04-09T04:59:02.247Z,6.8
2023-04-09T05:00:02.277Z,6.7
2023-04-09T05:01:02.175Z,6.7
2023-04-09T05:02:02.071Z,6.8
2023-04-09T05:03:02.318Z,6.8
2023-04-09T05:04:02.331Z,6.9
2023-04-09T05:05:02.338Z,6.8
2023-04-09T05:06:02.106Z,6.9
2023-04-09T05:07:02.126Z,6.9
2023-04-09T05:08:01.984Z,6.9
2023-04-09T05:09:01.926Z,7.1
2023-04-09T05:10:01.980Z,7.2
2023-04-09T05:11:01.828Z,7.2
2023-04-09T05:12:01.764Z,7.2
2023-04-09T05:13:01.768Z,7.2
2023-04-09T05:14:01.556Z,7.3
2023-04-09T05:15:01.605Z,7.3
2023-04-09T05:16:01.432Z,7.2
2023-04-09T05:17:01.349Z,7.1
2023-04-09T05:18:01.420Z,7
2023-04-09T05:19:02.331Z,7
2023-04-09T05:20:02.172Z,7
2023-04-09T05:21:02.222Z,7
2023-04-09T05:22:02.077Z,7
2023-04-09T05:23:02.104Z,7
2023-04-09T05:24:01.963Z,7
2023-04-09T05:25:01.900Z,7
2023-04-09T05:26:01.945Z,7
2023-04-09T05:27:01.803Z,7
2023-04-09T05:28:01.724Z,6.9
2023-04-09T05:29:01.695Z,6.9
2023-04-09T05:30:01.589Z,7
2023-04-09T05:31:01.622Z,7
2023-04-09T05:32:01.388Z,7.1
2023-04-09T05:33:01.427Z,7.1
2023-04-09T05:34:02.370Z,7.1
2023-04-09T05:35:02.216Z,7.2
2023-04-09T05:36:02.302Z,7.2
2023-04-09T05:37:02.122Z,7.2
2023-04-09T05:38:02.161Z,7.2
2023-04-09T05:39:02.018Z,7.2
2023-04-09T05:40:02.036Z,7.2
2023-04-09T05:41:01.885Z,7.3
2023-04-09T05:42:01.837Z,7.3
2023-04-09T05:43:01.819Z,7.3
2023-04-09T05:44:01.742Z,7.3
2023-04-09T05:45:01.758Z,7.2
2023-04-09T05:46:01.619Z,7.3
2023-04-09T05:47:01.649Z,7.3
2023-04-09T05:48:01.701Z,7.3
2023-04-09T05:49:01.533Z,7.2
2023-04-09T05:50:01.551Z,7.2
2023-04-09T05:51:01.330Z,7.3
2023-04-09T05:52:01.388Z,7.3
2023-04-09T05:53:01.298Z,7.2
2023-04-09T05:54:02.346Z,7.2
2023-04-09T05:55:02.241Z,7.3
2023-04-09T05:56:02.283Z,7.3
2023-04-09T05:57:02.083Z,7.3
2023-04-09T05:58:02.150Z,7.3
2023-04-09T05:59:01.978Z,7.4
2023-04-09T06:00:03.341Z,7.3
2023-04-09T06:01:02.200Z,7.3
2023-04-09T06:02:01.497Z,7.3
2023-04-09T06:03:01.536Z,7.4
2023-04-09T06:04:01.616Z,7.4
2023-04-09T06:05:02.285Z,7.4
2023-04-09T06:06:02.281Z,7.4
2023-04-09T06:07:02.176Z,7.5
2023-04-09T06:08:02.234Z,7.4
2023-04-09T06:09:02.070Z,7.4
2023-04-09T06:10:02.117Z,7.4
2023-04-09T06:11:01.989Z,7.4
2023-04-09T06:12:01.922Z,7.3
2023-04-09T06:13:01.932Z,7.4
2023-04-09T06:14:01.808Z,7.4
2023-04-09T06:15:01.735Z,7.4
2023-04-09T06:16:01.890Z,7.5
2023-04-09T06:17:01.586Z,7.4
2023-04-09T06:18:01.652Z,7.4
2023-04-09T06:19:01.571Z,7.4
2023-04-09T06:20:01.485Z,7.5
2023-04-09T06:21:01.324Z,7.3
2023-04-09T06:22:02.306Z,7.4
2023-04-09T06:23:02.246Z,7.5
2023-04-09T06:24:02.283Z,7.5
2023-04-09T06:25:02.114Z,7.5
2023-04-09T06:26:02.190Z,7.5
2023-04-09T06:27:02.038Z,7.4
2023-04-09T06:28:02.018Z,7.4
2023-04-09T06:29:01.933Z,7.4
2023-04-09T06:30:01.798Z,7.4
2023-04-09T06:31:01.893Z,7.4
2023-04-09T06:32:01.626Z,7.5
2023-04-09T06:33:01.650Z,7.5
2023-04-09T06:34:01.498Z,7.5
2023-04-09T06:35:01.529Z,7.5
2023-04-09T06:36:01.470Z,7.6
2023-04-09T06:37:01.429Z,7.6
2023-04-09T06:38:02.426Z,7.5
2023-04-09T06:39:02.232Z,7.5
2023-04-09T06:40:02.276Z,7.6
2023-04-09T06:41:02.125Z,7.5
2023-04-09T06:42:02.138Z,7.5
2023-04-09T06:43:02.002Z,7.5
2023-04-09T06:44:02.069Z,7.6
2023-04-09T06:45:01.933Z,7.6
2023-04-09T06:46:01.925Z,7.5
2023-04-09T06:47:01.975Z,7.7
2023-04-09T06:48:02.022Z,7.7
2023-04-09T06:49:01.860Z,7.7
2023-04-09T06:50:01.740Z,7.7
2023-04-09T06:51:01.850Z,7.8
2023-04-09T06:52:01.756Z,7.7
2023-04-09T06:53:01.818Z,7.7
2023-04-09T06:54:01.696Z,7.8
2023-04-09T06:55:01.760Z,7.8
2023-04-09T06:56:01.591Z,7.8
2023-04-09T06:57:01.656Z,7.7
2023-04-09T06:58:01.464Z,7.7
2023-04-09T06:59:01.479Z,7.7
2023-04-09T07:00:01.930Z,7.7
2023-04-09T07:01:01.858Z,7.7
2023-04-09T07:02:02.289Z,7.9
2023-04-09T07:03:02.617Z,7.8
2023-04-09T07:04:01.332Z,7.9
2023-04-09T07:05:02.585Z,8
2023-04-09T07:06:02.247Z,8
2023-04-09T07:07:02.291Z,8
2023-04-09T07:08:02.169Z,8
2023-04-09T07:09:02.164Z,7.9
2023-04-09T07:10:02.041Z,8
2023-04-09T07:11:02.032Z,8.1
2023-04-09T07:12:01.870Z,7.8
2023-04-09T07:13:01.858Z,7.7
2023-04-09T07:14:01.850Z,7.7
2023-04-09T07:15:01.713Z,7.8
2023-04-09T07:16:01.669Z,8.1
2023-04-09T07:17:01.712Z,8
2023-04-09T07:18:01.802Z,8.1
2023-04-09T07:19:01.645Z,8
2023-04-09T07:20:01.657Z,8.1
2023-04-09T07:21:02.140Z,8
2023-04-09T07:22:01.826Z,8
2023-04-09T07:23:01.779Z,8
2023-04-09T07:24:01.662Z,8.2
2023-04-09T07:25:01.645Z,8.3
2023-04-09T07:26:01.539Z,8.3
2023-04-09T07:27:01.412Z,8.2
2023-04-09T07:28:01.289Z,8.1
2023-04-09T07:29:02.310Z,8.1
2023-04-09T07:30:02.200Z,8.2
2023-04-09T07:31:02.299Z,8.3
2023-04-09T07:32:02.168Z,8.2
2023-04-09T07:33:02.143Z,8.3
2023-04-09T07:34:02.007Z,8.2
2023-04-09T07:35:01.947Z,8.3
2023-04-09T07:36:02.034Z,8.3
2023-04-09T07:37:02.142Z,8.3
2023-04-09T07:38:02.282Z,8.4
2023-04-09T07:39:02.344Z,8.5
2023-04-09T07:40:02.197Z,8.5
2023-04-09T07:41:02.230Z,8.5
2023-04-09T07:42:02.056Z,8.4
2023-04-09T07:43:02.066Z,8.4
2023-04-09T07:44:01.985Z,8.4
2023-04-09T07:45:02.015Z,8.4
2023-04-09T07:46:02.026Z,8.4
2023-04-09T07:47:01.964Z,8.5
2023-04-09T07:48:02.099Z,8.5
2023-04-09T07:49:02.088Z,8.5
2023-04-09T07:50:01.932Z,8.4
2023-04-09T07:51:02.130Z,8.3
2023-04-09T07:52:02.135Z,8.3
2023-04-09T07:53:02.034Z,8.3
2023-04-09T07:54:02.007Z,8.5
2023-04-09T07:55:01.958Z,8.5
2023-04-09T07:56:01.838Z,8.6
2023-04-09T07:57:01.795Z,8.6
2023-04-09T07:58:01.662Z,8.6
2023-04-09T07:59:01.665Z,8.7
2023-04-09T08:00:01.538Z,8.5
2023-04-09T08:01:01.489Z,8.4
2023-04-09T08:02:01.513Z,8.4
2023-04-09T08:03:01.762Z,8.6
2023-04-09T08:04:02.356Z,8.6
2023-04-09T08:05:01.827Z,8.6
2023-04-09T08:06:01.906Z,8.7
2023-04-09T08:07:01.742Z,8.7
2023-04-09T08:08:01.676Z,8.6
2023-04-09T08:09:01.566Z,8.5
2023-04-09T08:10:01.634Z,8.4
2023-04-09T08:11:01.466Z,8.5
2023-04-09T08:12:01.501Z,8.6
2023-04-09T08:13:01.337Z,8.6
2023-04-09T08:14:01.409Z,8.6
2023-04-09T08:15:02.349Z,8.5
2023-04-09T08:16:02.229Z,8.5
2023-04-09T08:17:01.345Z,8.5
2023-04-09T08:18:01.393Z,8.6
2023-04-09T08:19:02.318Z,8.7
2023-04-09T08:20:02.183Z,8.5
2023-04-09T08:21:02.221Z,8.6
2023-04-09T08:22:02.102Z,8.6
2023-04-09T08:23:02.101Z,8.6
2023-04-09T08:24:01.943Z,8.5
2023-04-09T08:25:02.871Z,8.6
2023-04-09T08:26:01.829Z,8.7
2023-04-09T08:27:01.868Z,8.7
2023-04-09T08:28:01.647Z,8.7
2023-04-09T08:29:01.636Z,8.7
2023-04-09T08:30:01.526Z,8.6
2023-04-09T08:31:01.552Z,8.6
2023-04-09T08:32:02.311Z,8.6
2023-04-09T08:33:02.264Z,8.7
2023-04-09T08:34:02.179Z,8.8
2023-04-09T08:35:01.994Z,8.8
2023-04-09T08:36:03.307Z,8.8
2023-04-09T08:37:02.094Z,8.8
2023-04-09T08:38:02.182Z,8.8
2023-04-09T08:39:02.025Z,8.7
2023-04-09T08:40:01.945Z,8.8
2023-04-09T08:41:01.908Z,8.8
2023-04-09T08:42:01.951Z,8.8
2023-04-09T08:43:01.928Z,8.8
2023-04-09T08:44:01.921Z,8.7
2023-04-09T08:45:01.950Z,8.8
2023-04-09T08:46:01.754Z,8.9
2023-04-09T08:47:01.537Z,8.9
2023-04-09T08:48:01.772Z,8.9
2023-04-09T08:49:01.857Z,8.9
2023-04-09T08:50:01.757Z,8.9
2023-04-09T08:51:01.744Z,8.9
2023-04-09T08:52:01.631Z,9
2023-04-09T08:53:01.646Z,9
2023-04-09T08:54:04.183Z,9.1
2023-04-09T08:55:02.031Z,9.1
2023-04-09T08:56:02.066Z,8.8
2023-04-09T08:57:01.940Z,8.7
2023-04-09T08:58:01.847Z,8.7
2023-04-09T08:59:01.917Z,8.6
2023-04-09T09:00:02.461Z,8.9
2023-04-09T09:01:01.372Z,8.8
2023-04-09T09:02:01.722Z,9
2023-04-09T09:03:02.031Z,9.1
2023-04-09T09:04:01.465Z,9
2023-04-09T09:05:01.526Z,9.1
2023-04-09T09:06:01.385Z,8.8
2023-04-09T09:07:01.398Z,8.8
2023-04-09T09:08:02.357Z,8.8
2023-04-09T09:09:02.205Z,9
2023-04-09T09:10:02.218Z,9.1
2023-04-09T09:11:02.110Z,9.2
2023-04-09T09:12:02.110Z,8.9
2023-04-09T09:13:01.884Z,9
2023-04-09T09:14:01.856Z,9.1
2023-04-09T09:15:01.900Z,9.2
2023-04-09T09:16:01.692Z,9.2
2023-04-09T09:17:01.568Z,9.2
2023-04-09T09:18:01.677Z,9.3
2023-04-09T09:19:01.570Z,9.3
2023-04-09T09:20:01.583Z,9.2
2023-04-09T09:21:01.458Z,9.3
2023-04-09T09:22:01.430Z,9.2
2023-04-09T09:23:01.329Z,9.2
2023-04-09T09:24:02.294Z,9.3
2023-04-09T09:25:02.216Z,9.3
2023-04-09T09:26:02.263Z,9.2
2023-04-09T09:27:02.141Z,9
2023-04-09T09:28:02.146Z,9
2023-04-09T09:29:01.997Z,9.3
2023-04-09T09:30:02.052Z,9.2
2023-04-09T09:31:01.941Z,9.1
2023-04-09T09:32:01.664Z,9
2023-04-09T09:33:01.772Z,9
2023-04-09T09:34:01.493Z,9.2
2023-04-09T09:35:01.579Z,9.3
2023-04-09T09:36:01.362Z,9.2
2023-04-09T09:37:01.404Z,9.2
2023-04-09T09:38:02.324Z,9.3
2023-04-09T09:39:02.220Z,9.2
2023-04-09T09:40:02.280Z,9.3
2023-04-09T09:41:02.124Z,9.3
2023-04-09T09:42:02.132Z,9.3
2023-04-09T09:43:02.038Z,9.2
2023-04-09T09:44:02.051Z,9.3
2023-04-09T09:45:01.920Z,9.3
2023-04-09T09:46:01.847Z,9.3
2023-04-09T09:47:01.644Z,9.2
2023-04-09T09:48:01.689Z,9.1
2023-04-09T09:49:01.572Z,9.2
2023-04-09T09:50:01.590Z,9.4
2023-04-09T09:51:01.417Z,9.4
2023-04-09T09:52:01.451Z,9.3
2023-04-09T09:53:01.324Z,9.3
2023-04-09T09:54:02.373Z,9.1
2023-04-09T09:55:02.285Z,9.2
2023-04-09T09:56:02.314Z,9.1
2023-04-09T09:57:02.205Z,9.2
2023-04-09T09:58:02.237Z,9.3
2023-04-09T09:59:02.113Z,9.3
2023-04-09T10:00:02.364Z,9.3
2023-04-09T10:01:01.381Z,9.4
2023-04-09T10:02:02.079Z,9.3
2023-04-09T10:03:02.322Z,9.4
2023-04-09T10:04:01.344Z,9.4
2023-04-09T10:05:02.361Z,9.4
2023-04-09T10:06:02.233Z,9.3
2023-04-09T10:07:02.217Z,9.3
2023-04-09T10:08:02.114Z,9.3
2023-04-09T10:09:02.175Z,9.3
2023-04-09T10:10:02.032Z,9.3
2023-04-09T10:11:02.030Z,9.3
2023-04-09T10:12:01.937Z,9.4
2023-04-09T10:13:01.851Z,9.5
2023-04-09T10:14:01.911Z,9.5
2023-04-09T10:15:01.738Z,9.6
2023-04-09T10:16:01.827Z,9.7
2023-04-09T10:17:01.634Z,9.7
2023-04-09T10:18:01.728Z,9.8
2023-04-09T10:19:01.636Z,9.7
2023-04-09T10:20:01.736Z,9.6
2023-04-09T10:21:01.546Z,9.8
2023-04-09T10:22:01.578Z,9.8
2023-04-09T10:23:01.392Z,9.9
2023-04-09T10:24:01.387Z,9.9
2023-04-09T10:25:02.354Z,9.9
2023-04-09T10:26:02.174Z,10
2023-04-09T10:27:02.176Z,10
2023-04-09T10:28:02.078Z,9.8
2023-04-09T10:29:02.103Z,9.9
2023-04-09T10:30:01.976Z,9.9
2023-04-09T10:31:01.997Z,10.1
2023-04-09T10:32:01.710Z,10
2023-04-09T10:33:01.728Z,10.2
2023-04-09T10:34:01.603Z,10.3
2023-04-09T10:35:01.639Z,10.4
2023-04-09T10:36:01.519Z,10.3
2023-04-09T10:37:01.516Z,10.3
2023-04-09T10:38:01.343Z,10.2
2023-04-09T10:39:01.423Z,10.1
2023-04-09T10:40:02.337Z,10.1
2023-04-09T10:41:02.195Z,10
2023-04-09T10:42:02.264Z,10
2023-04-09T10:43:02.116Z,10
2023-04-09T10:44:02.154Z,10.2
2023-04-09T10:45:02.016Z,10.1
2023-04-09T10:46:01.974Z,10.1
2023-04-09T10:47:02.017Z,10.1
2023-04-09T10:48:02.147Z,10.1
2023-04-09T10:49:01.931Z,10.1
2023-04-09T10:50:01.819Z,10.1
2023-04-09T10:51:01.850Z,10
2023-04-09T10:52:01.722Z,10.2
2023-04-09T10:53:01.681Z,10.4
2023-04-09T10:54:01.524Z,10.1
2023-04-09T10:55:01.528Z,10
2023-04-09T10:56:01.358Z,10
2023-04-09T10:57:01.365Z,10.1
2023-04-09T10:58:01.344Z,10.1
2023-04-09T10:59:02.344Z,10.2
2023-04-09T11:00:02.430Z,10.2
2023-04-09T11:01:01.501Z,10.2
2023-04-09T11:02:01.883Z,10.3
2023-04-09T11:03:02.184Z,10.4
2023-04-09T11:04:01.702Z,10.4
2023-04-09T11:05:01.589Z,10.3
2023-04-09T11:06:01.878Z,10.2
2023-04-09T11:07:01.792Z,10.4
2023-04-09T11:08:01.686Z,10.5
2023-04-09T11:09:01.649Z,10.4
2023-04-09T11:10:01.507Z,10.4
2023-04-09T11:11:02.167Z,10.5
2023-04-09T11:12:02.241Z,10.5
2023-04-09T11:13:02.069Z,10.4
2023-04-09T11:14:02.114Z,10.5
2023-04-09T11:15:01.968Z,10.5
2023-04-09T11:16:01.941Z,10.4
2023-04-09T11:17:01.989Z,10.6
2023-04-09T11:18:02.081Z,10.5
2023-04-09T11:19:02.032Z,10.6
2023-04-09T11:20:01.920Z,10.7
2023-04-09T11:21:01.939Z,10.8
2023-04-09T11:22:01.825Z,10.8
2023-04-09T11:23:01.797Z,10.7
2023-04-09T11:24:01.788Z,10.7
2023-04-09T11:25:01.636Z,10.7
2023-04-09T11:26:01.548Z,10.7
2023-04-09T11:27:01.433Z,10.7
2023-04-09T11:28:01.481Z,10.7
2023-04-09T11:29:01.329Z,10.7
2023-04-09T11:30:02.390Z,10.7
2023-04-09T11:31:02.291Z,10.7
2023-04-09T11:32:01.592Z,10.6
2023-04-09T11:33:01.522Z,10.8
2023-04-09T11:34:01.336Z,11
2023-04-09T11:35:01.433Z,10.8
2023-04-09T11:36:02.370Z,11
2023-04-09T11:37:02.221Z,11.2
2023-04-09T11:38:02.270Z,11.2
2023-04-09T11:39:02.131Z,11.1
2023-04-09T11:40:02.193Z,11.2
2023-04-09T11:41:02.073Z,11.3
2023-04-09T11:42:02.105Z,11.2
2023-04-09T11:43:01.931Z,11.2
2023-04-09T11:44:01.863Z,11.2
2023-04-09T11:45:01.944Z,11
2023-04-09T11:46:01.825Z,11.2
2023-04-09T11:47:01.923Z,11.1
2023-04-09T11:48:01.917Z,11.3
2023-04-09T11:49:01.769Z,11.7
2023-04-09T11:50:01.750Z,11.9
2023-04-09T11:51:01.721Z,12.4
2023-04-09T11:52:01.535Z,12.7
2023-04-09T11:53:01.634Z,12.8
2023-04-09T11:54:01.466Z,13
2023-04-09T11:55:01.486Z,12.8
2023-04-09T11:56:01.330Z,12.8
2023-04-09T11:57:01.376Z,12.9
2023-04-09T11:58:02.351Z,13
2023-04-09T11:59:02.200Z,13.5
2023-04-09T12:00:04.649Z,13.8
2023-04-09T12:01:02.181Z,13.9
2023-04-09T12:02:01.322Z,14.2
2023-04-09T12:03:02.676Z,14.2
2023-04-09T12:04:02.108Z,13.9
2023-04-09T12:05:02.155Z,13.7
2023-04-09T12:06:02.201Z,13.6
2023-04-09T12:07:02.062Z,13.7
2023-04-09T12:08:02.057Z,13.6
2023-04-09T12:09:02.013Z,14
2023-04-09T12:10:01.910Z,13.8
2023-04-09T12:11:01.905Z,13.7
2023-04-09T12:12:01.753Z,13.9
2023-04-09T12:13:01.731Z,14
2023-04-09T12:14:01.725Z,13.8
2023-04-09T12:15:01.578Z,13.9
2023-04-09T12:16:01.535Z,14
2023-04-09T12:17:01.594Z,13.9
2023-04-09T12:18:01.613Z,13.7
2023-04-09T12:19:01.493Z,13.6
2023-04-09T12:20:01.546Z,13.6
2023-04-09T12:21:01.448Z,14
2023-04-09T12:22:01.457Z,13.9
2023-04-09T12:23:02.332Z,14.2
2023-04-09T12:24:02.175Z,14.2
2023-04-09T12:25:02.240Z,14.3
2023-04-09T12:26:02.132Z,14.3
2023-04-09T12:27:02.297Z,14.1
2023-04-09T12:28:02.147Z,14.6
2023-04-09T12:29:02.146Z,14.8
2023-04-09T12:30:02.036Z,14.9
2023-04-09T12:31:02.045Z,15.3
2023-04-09T12:32:02.008Z,15
2023-04-09T12:33:02.071Z,14.4
2023-04-09T12:34:02.071Z,14.2
2023-04-09T12:35:01.919Z,14.3
2023-04-09T12:36:01.838Z,14.3
2023-04-09T12:37:01.887Z,14.2
2023-04-09T12:38:01.792Z,14.2
2023-04-09T12:39:01.710Z,14.1
2023-04-09T12:40:01.722Z,14.1
2023-04-09T12:41:01.569Z,14.1
2023-04-09T12:42:01.566Z,13.9
2023-04-09T12:43:01.394Z,13.7
2023-04-09T12:44:01.425Z,13.8
2023-04-09T12:45:02.382Z,13.7
2023-04-09T12:46:02.217Z,13.9
2023-04-09T12:47:01.479Z,13.9
2023-04-09T12:48:01.601Z,13.7
2023-04-09T12:49:01.556Z,13.9
2023-04-09T12:50:01.507Z,13.8
2023-04-09T12:51:01.349Z,13.9
2023-04-09T12:52:01.378Z,13.7
2023-04-09T12:53:02.314Z,13.7
2023-04-09T12:54:02.202Z,13.7
2023-04-09T12:55:02.233Z,13.9
2023-04-09T12:56:02.050Z,14
2023-04-09T12:57:02.094Z,14
2023-04-09T12:58:01.948Z,14.1
2023-04-09T12:59:01.932Z,14.3
2023-04-09T13:00:02.968Z,13.8
2023-04-09T13:01:01.902Z,14.2
2023-04-09T13:02:02.152Z,14.1
2023-04-09T13:03:02.467Z,14.2
2023-04-09T13:04:01.700Z,14.3
2023-04-09T13:05:01.696Z,14.4
2023-04-09T13:06:01.576Z,14.1
2023-04-09T13:07:01.601Z,14.3
2023-04-09T13:08:01.403Z,14.4
2023-04-09T13:09:01.441Z,14.8
2023-04-09T13:10:01.259Z,14.9
2023-04-09T13:11:02.329Z,15
2023-04-09T13:12:02.182Z,15
2023-04-09T13:13:02.237Z,14.9
2023-04-09T13:14:02.091Z,14.7
2023-04-09T13:15:02.140Z,14.9
2023-04-09T13:16:02.016Z,15.4
2023-04-09T13:17:02.256Z,15.7
2023-04-09T13:18:02.258Z,15.2
2023-04-09T13:19:02.075Z,15.2
2023-04-09T13:20:02.140Z,15.4
2023-04-09T13:21:02.028Z,15
2023-04-09T13:22:02.018Z,14.9
2023-04-09T13:23:02.067Z,14.9
2023-04-09T13:24:01.881Z,14.9
2023-04-09T13:25:01.799Z,14.8
2023-04-09T13:26:01.835Z,14.8
2023-04-09T13:27:01.671Z,15
2023-04-09T13:28:01.695Z,14.8
2023-04-09T13:29:01.548Z,15
2023-04-09T13:30:01.609Z,15.1
2023-04-09T13:31:01.435Z,15.4
2023-04-09T13:32:01.409Z,14.9
2023-04-09T13:33:01.513Z,15.3
2023-04-09T13:34:01.317Z,15.5
2023-04-09T13:35:02.335Z,15.2
2023-04-09T13:36:02.181Z,15
2023-04-09T13:37:02.151Z,14.9
2023-04-09T13:38:02.018Z,14.8
2023-04-09T13:39:01.996Z,14.7
2023-04-09T13:40:02.028Z,14.5
2023-04-09T13:41:01.867Z,14.4
2023-04-09T13:42:05.412Z,14.3
2023-04-09T13:43:02.103Z,14.1
2023-04-09T13:44:02.106Z,14.1
2023-04-09T13:45:02.051Z,14